Time;durP1;ratioP1;P1;durP2;ratioP2;P2;SDS_P1;SDS_P2;PMS_P1;PMS_P2;Temp;Humidity;BMP_temperature;BMP_pressure;BME280_temperature;BME280_humidity;BME280_pressure;Samples;Min_cycle;Max_cycle;Signal;HPM_P1;HPM_P2
2023/01/26 00:01:00;;;;;;;;;59.75;47.75;;;;;1.96;78.53;101647.31;4976980;28;45431;-70
2023/01/26 00:03:26;;;;;;;;;60.25;49.50;;;;;1.94;78.83;101645.53;4977010;28;45407;-76
2023/01/26 00:05:51;;;;;;;;;73.25;54.25;;;;;1.96;78.21;101646.44;4976459;28;45265;-80
2023/01/26 00:08:17;;;;;;;;;70.00;55.25;;;;;2.02;79.03;101647.41;4978222;28;46491;-84
2023/01/26 00:10:49;;;;;;;;;72.00;57.00;;;;;1.88;79.05;101620.41;4975941;28;45639;-78
2023/01/26 00:13:21;;;;;;;;;67.00;54.25;;;;;2.13;78.67;101641.47;4976882;28;45398;-83
2023/01/26 00:15:46;;;;;;;;;69.75;54.50;;;;;2.15;78.98;101640.66;4979631;28;45267;-85
2023/01/26 00:18:13;;;;;;;;;69.75;56.00;;;;;2.21;78.85;101626.84;4980509;28;45486;-73
2023/01/26 00:20:39;;;;;;;;;66.50;55.00;;;;;2.24;79.15;101619.09;4980230;28;45360;-79
2023/01/26 00:23:04;;;;;;;;;67.50;55.25;;;;;2.28;78.45;101614.81;4984350;28;45848;-80
2023/01/26 00:25:30;;;;;;;;;69.50;56.75;;;;;2.33;78.78;101616.59;4983210;28;45361;-76
2023/01/26 00:27:56;;;;;;;;;66.75;53.00;;;;;2.22;79.35;101581.88;4984731;28;45410;-79
2023/01/26 00:30:21;;;;;;;;;66.00;53.25;;;;;2.37;79.76;101599.34;4981622;28;45337;-68
2023/01/26 00:32:46;;;;;;;;;67.25;54.50;;;;;2.49;79.57;101598.56;4983358;28;45154;-66
2023/01/26 00:35:12;;;;;;;;;67.75;52.50;;;;;2.53;79.41;101600.34;4986517;28;45534;-73
2023/01/26 00:37:40;;;;;;;;;65.25;52.75;;;;;2.54;79.38;101596.88;4985069;28;46353;-70
2023/01/26 00:40:06;;;;;;;;;66.50;52.00;;;;;2.63;79.47;101593.53;4981862;28;45173;-69
2023/01/26 00:42:31;;;;;;;;;60.50;49.50;;;;;2.58;79.38;101574.44;4979131;28;45302;-68
2023/01/26 00:44:57;;;;;;;;;67.75;54.75;;;;;2.66;78.85;101577.97;4981290;28;45244;-74
2023/01/26 00:47:22;;;;;;;;;69.75;52.25;;;;;2.70;79.27;101571.06;5023516;28;45418;-80
2023/01/26 00:49:47;;;;;;;;;69.25;55.00;;;;;2.71;79.05;101571.06;5082504;27;46006;-65
2023/01/26 00:52:13;;;;;;;;;65.00;53.50;;;;;2.73;79.91;101565.91;5077958;28;45497;-66
2023/01/26 00:54:38;;;;;;;;;69.25;54.50;;;;;2.76;79.33;101573.72;5079823;27;45518;-67
2023/01/26 00:57:04;;;;;;;;;66.75;52.00;;;;;2.66;79.83;101551.13;5078470;27;46255;-69
2023/01/26 00:59:31;;;;;;;;;62.00;50.00;;;;;2.77;79.31;101571.13;5079338;27;54848;-68
2023/01/26 01:01:58;;;;;;;;;62.50;50.50;;;;;2.80;79.68;101567.69;5079200;27;45326;-69
2023/01/26 01:04:24;;;;;;;;;64.75;52.00;;;;;2.81;80.10;101566.84;5080455;27;45322;-72
2023/01/26 01:06:50;;;;;;;;;64.25;49.25;;;;;2.80;79.89;101562.50;5079332;28;47160;-75
2023/01/26 01:09:15;;;;;;;;;62.50;49.75;;;;;2.81;79.89;101555.56;5081880;28;45278;-69
2023/01/26 01:11:42;;;;;;;;;59.00;47.00;;;;;2.82;79.07;101558.19;5080968;27;45231;-74
2023/01/26 01:14:08;;;;;;;;;66.00;53.50;;;;;2.69;78.68;101533.81;5079931;27;45630;-71
2023/01/26 01:16:33;;;;;;;;;65.00;52.00;;;;;2.73;79.42;101542.53;5079683;28;45480;-79
2023/01/26 01:18:59;;;;;;;;;63.00;49.50;;;;;2.76;78.58;101547.75;5079307;27;45370;-71
2023/01/26 01:21:25;;;;;;;;;62.50;52.00;;;;;2.73;78.88;101537.31;5079124;27;45590;-75
2023/01/26 01:23:50;;;;;;;;;60.25;50.25;;;;;2.76;78.74;101552.94;5080859;27;45309;-74
2023/01/26 01:26:15;;;;;;;;;62.75;52.00;;;;;2.75;78.66;101541.66;5084012;27;45320;-76
2023/01/26 01:28:42;;;;;;;;;66.50;53.75;;;;;2.79;78.61;101542.56;5080156;27;45976;-74
2023/01/26 01:31:11;;;;;;;;;64.00;52.00;;;;;2.76;78.67;101537.34;5081734;27;45406;-75
2023/01/26 01:33:37;;;;;;;;;68.00;52.75;;;;;2.83;79.29;101541.72;5081087;27;45518;-76
2023/01/26 01:36:10;;;;;;;;;63.75;51.50;;;;;2.82;79.04;101540.00;5080819;27;45207;-69
2023/01/26 01:38:35;;;;;;;;;65.50;51.75;;;;;2.74;78.48;101532.13;5081040;27;45339;-73
2023/01/26 01:41:00;;;;;;;;;65.25;52.50;;;;;2.79;79.02;101534.78;5080016;28;48018;-80
2023/01/26 01:43:27;;;;;;;;;65.00;52.75;;;;;2.78;79.02;101540.81;5077612;28;45519;-76
2023/01/26 01:45:54;;;;;;;;;66.75;53.25;;;;;2.75;79.32;101538.22;5078756;27;46331;-68
2023/01/26 01:48:34;;;;;;;;;71.00;55.25;;;;;2.81;78.17;101542.56;5077578;28;45439;-73
2023/01/26 01:51:06;;;;;;;;;68.00;55.50;;;;;2.80;78.69;101541.72;5078255;27;45291;-67
2023/01/26 01:53:38;;;;;;;;;67.50;52.25;;;;;2.82;78.08;101534.78;5077631;27;45306;-66
2023/01/26 01:56:10;;;;;;;;;67.75;52.00;;;;;2.84;78.03;101540.00;5000207;27;45422;-66
2023/01/26 01:58:40;;;;;;;;;66.25;53.25;;;;;2.76;78.31;101524.34;4973736;28;45368;-69
2023/01/26 02:01:06;;;;;;;;;60.25;50.00;;;;;2.86;79.11;101544.34;4978045;28;45328;-74
2023/01/26 02:03:34;;;;;;;;;70.75;55.00;;;;;2.79;78.71;101534.78;4978268;28;45416;-74
2023/01/26 02:06:12;;;;;;;;;65.00;52.75;;;;;2.81;79.01;101533.06;4976702;28;46884;-70
2023/01/26 02:08:42;;;;;;;;;63.00;52.50;;;;;2.73;79.08;101525.19;4976640;28;45551;-78
2023/01/26 02:11:12;;;;;;;;;65.50;53.50;;;;;2.76;79.47;101530.41;4979603;28;45311;-73
2023/01/26 02:13:40;;;;;;;;;65.50;52.25;;;;;2.74;79.09;101521.72;4979689;28;45300;-75
2023/01/26 02:16:05;;;;;;;;;70.25;56.25;;;;;2.70;78.92;101526.91;4977167;28;46120;-80
2023/01/26 02:18:31;;;;;;;;;73.25;56.25;;;;;2.67;78.84;101522.53;4977134;28;45338;-80
2023/01/26 02:21:06;;;;;;;;;76.50;56.25;;;;;2.70;78.75;101535.56;4978208;28;45284;-73
2023/01/26 02:23:40;;;;;;;;;63.50;50.25;;;;;2.70;79.56;101532.09;4978373;28;45743;-69
2023/01/26 02:26:10;;;;;;;;;69.25;55.25;;;;;2.61;78.98;101512.09;4972097;28;47386;-71
2023/01/26 02:28:36;;;;;;;;;68.25;53.50;;;;;2.43;78.82;101476.47;4974822;28;45394;-71
2023/01/26 02:31:02;;;;;;;;;73.00;55.75;;;;;2.69;79.05;101523.44;4974589;28;45449;-73
2023/01/26 02:33:30;;;;;;;;;66.25;53.25;;;;;2.67;79.50;101525.16;4974593;28;45303;-71
2023/01/26 02:35:55;;;;;;;;;70.00;56.00;;;;;2.72;79.05;101525.19;4973232;28;45958;-70
2023/01/26 02:38:24;;;;;;;;;67.50;53.25;;;;;2.70;79.56;101527.75;4973896;28;45347;-69
2023/01/26 02:41:04;;;;;;;;;67.75;53.25;;;;;2.68;78.96;101524.28;4974789;28;45270;-70
2023/01/26 02:43:31;;;;;;;;;75.00;58.00;;;;;2.67;79.30;101514.75;4975194;28;45332;-71
2023/01/26 02:45:56;;;;;;;;;71.25;54.75;;;;;2.67;79.76;101517.34;4974170;28;46182;-67
2023/01/26 02:51:16;;;;;;;;;67.00;54.00;;;;;2.68;80.39;101519.09;4955821;28;45439;-73
2023/01/26 02:53:42;;;;;;;;;74.50;58.00;;;;;2.67;79.42;101506.09;4975016;28;45413;-71
2023/01/26 02:56:07;;;;;;;;;64.00;51.25;;;;;2.68;80.13;101513.91;4975392;28;47355;-66
2023/01/26 02:58:32;;;;;;;;;72.00;55.50;;;;;2.67;80.06;101512.16;4976698;28;48482;-66
2023/01/26 03:00:58;;;;;;;;;69.50;55.50;;;;;2.71;79.74;101511.31;4975185;28;45353;-68
2023/01/26 03:03:44;;;;;;;;;65.00;52.75;;;;;2.70;80.22;101506.97;4975096;28;45192;-66
2023/01/26 03:06:11;;;;;;;;;73.50;58.00;;;;;2.71;79.42;101513.91;4974890;28;45555;-71
2023/01/26 03:08:37;;;;;;;;;73.25;55.25;;;;;2.70;79.63;101506.13;4974281;28;45313;-65
2023/01/26 03:11:05;;;;;;;;;71.25;55.50;;;;;2.65;80.09;101500.88;4974177;28;45403;-66
2023/01/26 03:13:30;;;;;;;;;70.75;52.50;;;;;2.65;79.80;101497.41;4974782;28;45516;-71
2023/01/26 03:16:01;;;;;;;;;67.00;53.25;;;;;2.67;80.47;101506.09;4974049;28;52978;-70
2023/01/26 03:29:25;;;;;;;;;72.75;55.00;;;;;2.56;80.58;101487.81;4977139;28;45345;-68
2023/01/26 03:31:52;;;;;;;;;68.50;52.75;;;;;2.48;80.67;101473.06;4976038;28;45766;-67
2023/01/26 03:34:17;;;;;;;;;63.25;51.75;;;;;2.52;80.29;101486.06;4975780;28;45409;-66
2023/01/26 03:36:43;;;;;;;;;68.75;53.50;;;;;2.50;80.35;101480.00;4975392;28;45462;-66
2023/01/26 03:39:08;;;;;;;;;71.50;54.00;;;;;2.48;81.25;101478.25;4975347;28;45355;-65
2023/01/26 03:58:00;;;;;;;;;69.25;53.50;;;;;2.43;81.42;101461.75;4977883;28;45747;-68
2023/01/26 04:00:26;;;;;;;;;70.00;56.00;;;;;2.48;80.99;101465.25;4976326;28;45178;-69
2023/01/26 04:08:37;;;;;;;;;68.25;54.25;;;;;2.55;81.99;101460.13;4975696;28;45899;-65
2023/01/26 04:11:02;;;;;;;;;69.75;55.75;;;;;2.57;81.72;101456.66;4975708;28;45438;-68
2023/01/26 04:21:39;;;;;;;;;68.50;54.75;;;;;2.57;81.39;101443.66;4976789;28;45453;-66
2023/01/26 04:24:12;;;;;;;;;74.50;55.00;;;;;2.62;81.79;101451.50;4976458;28;45252;-70
2023/01/26 04:26:39;;;;;;;;;71.75;54.25;;;;;2.58;81.38;101454.94;4976900;28;45311;-71
2023/01/26 04:29:07;;;;;;;;;72.75;55.75;;;;;2.59;81.39;101459.28;4977308;28;45403;-69
2023/01/26 04:31:33;;;;;;;;;68.50;55.00;;;;;2.59;81.57;101461.88;4977507;28;45346;-65
2023/01/26 04:33:59;;;;;;;;;65.75;53.50;;;;;2.60;80.98;101461.00;4976589;28;45357;-66
2023/01/26 04:36:25;;;;;;;;;68.75;55.25;;;;;2.59;81.61;101465.31;4978407;28;45526;-72
2023/01/26 04:38:51;;;;;;;;;70.00;56.00;;;;;2.61;81.47;101462.75;4978684;28;46855;-73
2023/01/26 04:41:16;;;;;;;;;76.75;56.25;;;;;2.51;81.71;101446.22;4978121;28;45246;-79
2023/01/26 04:43:42;;;;;;;;;70.75;53.75;;;;;2.58;82.50;101454.94;4977481;28;45330;-69
2023/01/26 04:46:08;;;;;;;;;68.75;53.50;;;;;2.57;81.90;101458.41;4977324;28;45597;-71
2023/01/26 04:48:35;;;;;;;;;69.50;53.50;;;;;2.55;81.83;101452.31;4976519;28;46471;-69
2023/01/26 04:51:03;;;;;;;;;67.50;52.75;;;;;2.53;81.49;101457.50;4976384;28;45313;-76
2023/01/26 04:53:30;;;;;;;;;67.00;51.00;;;;;2.61;81.80;101471.41;4976765;28;45311;-73
2023/01/26 04:55:55;;;;;;;;;65.75;50.00;;;;;2.61;81.83;101466.19;4975894;28;45468;-78
2023/01/26 04:58:21;;;;;;;;;64.00;51.00;;;;;2.54;82.29;101456.63;4977045;28;45915;-70
2023/01/26 05:00:50;;;;;;;;;62.25;52.00;;;;;2.55;82.17;101463.56;4976761;28;45335;-73
2023/01/26 05:03:16;;;;;;;;;64.00;50.25;;;;;2.59;82.38;101464.47;4976964;28;45460;-74
2023/01/26 05:05:41;;;;;;;;;68.75;55.25;;;;;2.46;82.76;101438.41;4977939;28;45617;-75
2023/01/26 05:08:06;;;;;;;;;63.00;49.75;;;;;2.60;82.24;101459.28;4977233;28;47068;-73
2023/01/26 05:10:32;;;;;;;;;59.50;47.00;;;;;2.57;82.07;101459.25;4976452;28;45326;-69
2023/01/26 05:12:58;;;;;;;;;67.75;52.25;;;;;2.54;82.28;101456.63;4975496;28;45494;-68
2023/01/26 05:15:23;;;;;;;;;65.00;51.75;;;;;2.53;82.76;101460.09;4976833;28;45364;-69
2023/01/26 05:17:48;;;;;;;;;68.00;54.00;;;;;2.48;82.46;101451.38;4980876;28;47044;-67
2023/01/26 05:20:14;;;;;;;;;66.50;53.00;;;;;2.46;82.00;101450.50;4975220;28;66996;-68
2023/01/26 05:22:39;;;;;;;;;65.75;53.25;;;;;2.54;82.16;101450.59;4976468;28;45345;-71
2023/01/26 05:25:05;;;;;;;;;63.25;51.50;;;;;2.50;82.47;101448.81;4976604;28;45267;-68
2023/01/26 05:27:30;;;;;;;;;67.75;53.50;;;;;2.47;82.29;101445.34;4991688;27;47842;-69
2023/01/26 05:29:59;;;;;;;;;59.75;48.50;;;;;2.54;82.06;101456.63;4975838;28;45399;-66
2023/01/26 05:32:25;;;;;;;;;65.00;53.75;;;;;2.53;82.85;101467.03;4978541;28;45291;-66
2023/01/26 05:34:51;;;;;;;;;69.00;52.50;;;;;2.53;82.37;101461.81;4978052;27;45355;-67
2023/01/26 05:37:17;;;;;;;;;59.25;51.00;;;;;2.55;82.20;101471.34;4977354;28;45512;-66
2023/01/26 05:39:42;;;;;;;;;63.75;50.50;;;;;2.52;82.59;101462.69;4978704;28;45444;-67
2023/01/26 05:42:07;;;;;;;;;61.75;51.50;;;;;2.48;82.46;101459.19;4976239;28;46067;-68
2023/01/26 05:44:32;;;;;;;;;62.25;52.00;;;;;2.48;82.42;101472.16;4977456;28;45342;-70
2023/01/26 05:46:58;;;;;;;;;72.00;55.25;;;;;2.26;82.04;101435.66;4980664;28;54651;-69
2023/01/26 05:49:23;;;;;;;;;66.75;53.00;;;;;2.47;83.19;101465.22;4983715;28;45291;-71
2023/01/26 05:51:49;;;;;;;;;68.50;53.50;;;;;2.44;82.52;101460.91;4982818;28;45199;-70
2023/01/26 05:54:14;;;;;;;;;70.00;52.75;;;;;2.46;83.25;101455.69;4978047;28;45211;-78
2023/01/26 05:56:39;;;;;;;;;58.75;48.25;;;;;2.48;82.39;101452.28;4975607;28;46582;-72
2023/01/26 05:59:05;;;;;;;;;71.25;56.00;;;;;2.56;82.93;101467.91;4975400;28;46300;-69
2023/01/26 06:01:30;;;;;;;;;66.50;52.75;;;;;2.54;83.19;101455.78;4975079;28;45230;-65
2023/01/26 06:03:55;;;;;;;;;59.75;50.00;;;;;2.52;82.82;101457.50;4981435;28;45578;-67
2023/01/26 06:06:21;;;;;;;;;61.50;51.50;;;;;2.53;83.12;101464.44;5074575;28;46226;-71
2023/01/26 06:08:46;;;;;;;;;69.00;52.25;;;;;2.52;83.28;101449.69;5075010;27;54849;-68
2023/01/26 06:11:11;;;;;;;;;66.25;53.00;;;;;2.60;83.32;101467.06;5076527;28;45153;-70
2023/01/26 06:13:37;;;;;;;;;67.25;52.75;;;;;2.62;83.74;101469.69;5075737;27;45233;-73
2023/01/26 06:16:02;;;;;;;;;72.25;57.00;;;;;2.63;83.04;101471.44;5075103;27;57019;-69
2023/01/26 06:18:27;;;;;;;;;61.25;49.75;;;;;2.56;83.64;101452.31;5075382;28;45423;-65
2023/01/26 06:20:57;;;;;;;;;66.75;52.00;;;;;2.52;83.67;101447.09;5077888;27;45338;-67
2023/01/26 06:23:22;;;;;;;;;68.50;50.50;;;;;2.61;83.32;101467.94;5078141;27;45456;-68
2023/01/26 06:25:47;;;;;;;;;66.75;52.50;;;;;2.62;83.88;101465.34;5077102;27;46160;-68
2023/01/26 06:28:13;;;;;;;;;70.75;52.25;;;;;2.64;82.86;101462.78;5076377;27;45385;-67
2023/01/26 06:30:38;;;;;;;;;62.75;51.25;;;;;2.61;83.69;101455.81;5076348;27;45278;-72
2023/01/26 06:33:05;;;;;;;;;63.25;52.50;;;;;2.61;83.82;101460.16;5075832;27;45397;-71
2023/01/26 06:35:32;;;;;;;;;66.00;52.00;;;;;2.62;82.87;101459.28;5076088;27;46291;-69
2023/01/26 06:37:57;;;;;;;;;63.00;49.00;;;;;2.63;83.59;101461.03;5076496;28;45339;-67
2023/01/26 06:40:23;;;;;;;;;55.25;46.25;;;;;2.64;82.89;101457.56;5076827;27;45324;-72
2023/01/26 06:42:49;;;;;;;;;55.75;45.75;;;;;2.63;82.96;101461.03;5082173;27;48645;-71
2023/01/26 06:45:16;;;;;;;;;64.25;50.75;;;;;2.60;82.67;101461.00;5081679;27;45440;-65
2023/01/26 06:47:48;;;;;;;;;59.25;48.50;;;;;2.61;83.37;101462.75;5076864;28;45321;-70
2023/01/26 06:50:15;;;;;;;;;56.50;46.00;;;;;2.64;83.07;101475.75;5077566;27;45513;-68
2023/01/26 06:52:43;;;;;;;;;59.25;48.25;;;;;2.53;83.11;101457.50;5076576;28;45498;-72
2023/01/26 06:55:20;;;;;;;;;63.75;50.25;;;;;2.60;83.31;101463.59;5076014;27;46373;-68
2023/01/26 06:57:46;;;;;;;;;76.00;59.00;;;;;2.68;83.20;101479.28;5074447;28;45324;-72
2023/01/26 07:00:12;;;;;;;;;68.25;55.00;;;;;2.62;83.06;101464.50;5076064;27;45251;-70
2023/01/26 07:02:38;;;;;;;;;59.25;49.25;;;;;2.71;82.94;101477.53;5076921;27;45640;-72
2023/01/26 07:05:04;;;;;;;;;61.75;49.50;;;;;2.72;83.20;101471.50;5076538;27;46130;-72
2023/01/26 07:07:29;;;;;;;;;62.75;51.00;;;;;2.75;83.81;101470.66;5075719;28;45423;-71
2023/01/26 07:09:55;;;;;;;;;64.25;52.25;;;;;2.76;83.34;101472.41;5077151;27;45354;-70
2023/01/26 07:12:20;;;;;;;;;57.50;49.25;;;;;2.77;83.60;101474.13;5076549;28;45279;-68
2023/01/26 07:14:46;;;;;;;;;66.00;52.50;;;;;2.81;83.46;101470.69;4995566;27;45495;-66
2023/01/26 07:17:11;;;;;;;;;54.50;45.00;;;;;2.81;83.30;101462.00;4971966;28;45349;-67
2023/01/26 07:19:37;;;;;;;;;64.00;49.00;;;;;2.82;82.85;101462.03;4973106;28;45461;-67
2023/01/26 07:22:02;;;;;;;;;63.50;52.25;;;;;2.78;83.38;101455.94;4972650;28;45552;-66
2023/01/26 07:24:28;;;;;;;;;56.75;45.50;;;;;2.86;83.11;101475.91;4971828;28;45422;-69
2023/01/26 07:26:55;;;;;;;;;67.00;53.50;;;;;2.86;82.89;101478.50;4972611;28;45378;-69
2023/01/26 07:29:20;;;;;;;;;59.00;47.75;;;;;2.90;83.75;101481.16;4971903;28;45232;-70
2023/01/26 07:31:46;;;;;;;;;64.50;52.00;;;;;2.91;83.89;101482.88;4971083;28;45817;-70
2023/01/26 07:34:11;;;;;;;;;58.25;47.25;;;;;2.90;82.82;101478.53;4972622;28;45508;-73
2023/01/26 07:36:37;;;;;;;;;63.25;49.00;;;;;2.88;83.69;101477.66;4974260;28;45324;-67
2023/01/26 07:39:03;;;;;;;;;68.00;52.50;;;;;2.91;83.66;101482.88;4974844;28;45556;-68
2023/01/26 07:41:28;;;;;;;;;61.25;51.50;;;;;2.91;83.29;101476.78;4975773;28;45574;-71
2023/01/26 07:43:53;;;;;;;;;67.00;51.25;;;;;2.89;83.16;101468.13;4972874;28;45465;-68
2023/01/26 07:46:19;;;;;;;;;65.75;53.00;;;;;2.92;82.69;101474.22;4973646;28;45327;-69
2023/01/26 07:48:44;;;;;;;;;66.00;52.50;;;;;2.92;83.19;101479.41;4974159;28;45457;-67
2023/01/26 07:51:09;;;;;;;;;60.75;50.25;;;;;2.94;82.64;101483.75;4972130;28;45672;-68
2023/01/26 07:53:38;;;;;;;;;63.75;53.00;;;;;2.89;83.05;101473.31;4971974;28;45933;-68
2023/01/26 07:56:08;;;;;;;;;57.75;48.00;;;;;2.98;82.49;101488.13;4990732;28;46260;-68
2023/01/26 07:58:34;;;;;;;;;62.00;50.00;;;;;2.99;82.80;101492.44;4977099;28;45285;-66
2023/01/26 08:01:04;;;;;;;;;63.00;52.75;;;;;2.99;82.75;101485.50;4980412;28;45683;-66
2023/01/26 08:03:30;;;;;;;;;58.50;47.25;;;;;2.94;83.24;101475.97;4986606;28;46289;-68
2023/01/26 08:05:55;;;;;;;;;65.00;50.00;;;;;3.03;82.40;101496.81;5061211;28;59072;-72
2023/01/26 08:08:20;;;;;;;;;65.25;51.75;;;;;3.04;82.93;101493.34;4986625;28;45361;-67
2023/01/26 08:10:46;;;;;;;;;56.25;47.50;;;;;3.00;83.11;101487.25;5007157;28;45571;-66
2023/01/26 08:13:11;;;;;;;;;64.75;52.75;;;;;3.05;83.40;101501.13;4982859;28;46105;-65
2023/01/26 08:15:36;;;;;;;;;64.25;50.00;;;;;3.05;83.67;101508.09;5044697;28;45401;-65
2023/01/26 08:18:03;;;;;;;;;60.75;50.00;;;;;3.04;83.07;101504.59;4986593;28;45325;-70
2023/01/26 08:20:29;;;;;;;;;64.75;50.75;;;;;3.10;82.61;101508.09;4991574;28;45341;-73
2023/01/26 08:22:55;;;;;;;;;64.50;49.25;;;;;3.16;83.05;101518.53;5026708;28;46612;-76
2023/01/26 08:25:20;;;;;;;;;67.25;52.00;;;;;3.05;82.38;101506.34;4985025;28;45411;-68
2023/01/26 08:27:45;;;;;;;;;67.50;52.75;;;;;3.07;82.62;101511.56;5028598;27;45717;-74
2023/01/26 08:30:11;;;;;;;;;67.00;53.75;;;;;3.17;82.62;101528.94;5004606;28;45706;-72
2023/01/26 08:32:37;;;;;;;;;64.50;50.75;;;;;3.18;83.12;101527.19;4977964;27;45457;-73
2023/01/26 08:35:02;;;;;;;;;62.50;51.00;;;;;3.15;82.17;101529.78;4982079;28;45427;-80
2023/01/26 08:37:28;;;;;;;;;66.00;54.25;;;;;3.12;81.50;101527.16;4998879;28;45545;-70
2023/01/26 08:39:53;;;;;;;;;65.25;53.00;;;;;3.14;82.18;101538.44;4980247;28;45490;-70
2023/01/26 08:42:18;;;;;;;;;64.25;49.50;;;;;3.15;82.15;101532.38;5011131;28;46876;-68
2023/01/26 08:44:43;;;;;;;;;67.50;52.75;;;;;3.19;81.99;101539.38;5039827;27;45340;-67
2023/01/26 08:47:09;;;;;;;;;60.00;49.75;;;;;3.13;82.49;101527.19;4984452;28;45436;-67
2023/01/26 08:49:34;;;;;;;;;66.00;53.50;;;;;3.20;81.60;101533.31;5055447;28;45282;-71
2023/01/26 08:51:59;;;;;;;;;60.25;49.00;;;;;3.21;81.32;101538.50;5000095;28;48229;-67
2023/01/26 08:54:25;;;;;;;;;65.75;50.00;;;;;3.24;81.74;101535.06;4992075;28;48007;-73
2023/01/26 08:56:50;;;;;;;;;64.00;51.75;;;;;3.27;81.94;101531.59;4973980;28;45509;-65
2023/01/26 08:59:15;;;;;;;;;59.50;49.75;;;;;3.32;81.94;101535.97;4972571;28;45540;-65
2023/01/26 09:01:41;;;;;;;;;62.50;50.25;;;;;3.40;81.58;101545.56;4974732;28;50382;-68
2023/01/26 09:04:06;;;;;;;;;62.75;51.50;;;;;3.42;81.78;101541.22;4974436;28;45279;-68
2023/01/26 09:06:32;;;;;;;;;60.50;50.50;;;;;3.44;82.10;101537.75;4974693;28;45341;-66
2023/01/26 09:08:57;;;;;;;;;61.00;51.00;;;;;3.51;81.12;101542.13;4974406;28;45250;-67
2023/01/26 09:11:23;;;;;;;;;62.50;47.00;;;;;3.49;80.64;101530.84;4976460;28;45997;-69
2023/01/26 09:13:55;;;;;;;;;57.50;45.50;;;;;3.52;80.49;101543.00;4972670;28;45978;-67
2023/01/26 09:16:21;;;;;;;;;57.75;48.25;;;;;3.49;80.38;101551.66;4974093;28;45247;-68
2023/01/26 09:18:50;;;;;;;;;60.50;47.00;;;;;3.40;80.66;101532.53;4974237;28;45233;-67
2023/01/26 09:21:16;;;;;;;;;57.75;47.25;;;;;3.47;80.14;101555.13;4972270;28;47952;-69
2023/01/26 09:23:42;;;;;;;;;75.50;58.75;;;;;3.47;80.97;101557.72;4974131;28;45457;-66
2023/01/26 09:26:07;;;;;;;;;64.25;52.00;;;;;3.44;80.91;101550.75;4974682;28;45456;-67
2023/01/26 09:28:33;;;;;;;;;62.75;51.00;;;;;3.50;81.56;101565.53;4974815;28;45311;-68
2023/01/26 09:31:03;;;;;;;;;53.75;45.75;;;;;3.58;81.24;101565.56;4974015;28;46013;-67
2023/01/26 09:33:29;;;;;;;;;57.75;48.50;;;;;3.57;81.21;101563.81;4974174;28;45300;-70
2023/01/26 09:35:54;;;;;;;;;65.75;51.75;;;;;3.68;81.80;101572.53;4974222;28;45274;-67
2023/01/26 09:38:19;;;;;;;;;64.75;50.75;;;;;3.75;80.85;101576.06;4974189;28;45285;-66
2023/01/26 09:40:45;;;;;;;;;64.25;49.50;;;;;3.79;80.48;101573.50;4973996;28;45679;-72
2023/01/26 09:43:28;;;;;;;;;57.25;47.50;;;;;3.77;80.64;101582.13;4974384;28;45355;-69
2023/01/26 09:46:23;;;;;;;;;65.50;51.50;;;;;3.71;80.81;101574.31;4975912;28;45320;-67
2023/01/26 09:48:55;;;;;;;;;58.50;47.25;;;;;3.63;80.82;101572.53;4976979;28;45553;-66
2023/01/26 09:51:28;;;;;;;;;57.50;46.50;;;;;3.58;81.00;101576.84;4976396;28;45297;-68
2023/01/26 09:53:58;;;;;;;;;52.75;45.50;;;;;3.56;81.15;101570.78;4976269;28;45221;-68
2023/01/26 09:56:27;;;;;;;;;56.50;45.50;;;;;3.42;80.70;101572.44;4975161;28;45317;-69
2023/01/26 09:59:06;;;;;;;;;45.25;39.25;;;;;3.35;81.18;101567.19;4975479;28;45379;-69
2023/01/26 10:01:48;;;;;;;;;44.00;38.50;;;;;3.41;81.09;101581.97;4974167;28;46131;-66
2023/01/26 10:04:31;;;;;;;;;56.50;44.75;;;;;3.44;82.56;101578.53;4972553;28;45425;-68
2023/01/26 10:06:58;;;;;;;;;58.00;47.25;;;;;3.22;81.66;101545.44;4973611;28;45363;-69
2023/01/26 10:09:28;;;;;;;;;60.50;48.25;;;;;3.45;81.42;101583.72;4982924;28;45406;-66
2023/01/26 10:11:59;;;;;;;;;55.00;43.50;;;;;3.48;81.84;101590.69;4991646;28;46254;-68
2023/01/26 10:14:32;;;;;;;;;52.00;45.00;;;;;3.53;81.45;101581.16;4993168;28;45312;-68
2023/01/26 10:17:00;;;;;;;;;56.25;44.25;;;;;3.49;81.52;101576.81;4993738;28;45370;-66
2023/01/26 10:19:46;;;;;;;;;63.50;52.25;;;;;3.62;81.54;101594.22;4992012;28;45537;-67
2023/01/26 10:22:43;;;;;;;;;50.00;41.50;;;;;3.72;81.74;101599.47;4991507;28;48574;-66
2023/01/26 10:25:17;;;;;;;;;60.00;49.25;;;;;3.74;82.14;101595.13;4991738;27;45377;-67
2023/01/26 10:27:47;;;;;;;;;56.25;47.75;;;;;3.78;81.71;101594.28;4992898;28;45358;-68
2023/01/26 10:30:14;;;;;;;;;56.25;45.25;;;;;3.73;81.51;101575.19;4993161;28;45526;-67
2023/01/26 10:32:43;;;;;;;;;51.00;42.25;;;;;3.88;81.36;101590.00;4992671;28;45357;-65
2023/01/26 10:35:34;;;;;;;;;60.25;50.50;;;;;3.93;81.18;101586.53;4992205;28;45431;-67
2023/01/26 10:38:00;;;;;;;;;59.75;46.25;;;;;3.97;80.76;101589.16;4986588;28;45619;-67
2023/01/26 10:40:25;;;;;;;;;56.50;44.75;;;;;4.03;81.39;101591.78;4993246;28;45157;-66
2023/01/26 10:42:58;;;;;;;;;55.25;45.50;;;;;4.07;80.94;101577.91;4992833;28;56637;-66
2023/01/26 10:45:29;;;;;;;;;70.00;55.00;;;;;4.15;81.48;101581.41;4994958;28;45305;-66
2023/01/26 10:48:10;;;;;;;;;57.00;47.75;;;;;4.24;80.94;101580.56;4992884;28;45448;-67
2023/01/26 10:50:36;;;;;;;;;56.75;45.25;;;;;4.24;80.43;101577.97;4993789;28;45384;-67
2023/01/26 10:53:03;;;;;;;;;56.00;47.00;;;;;4.11;80.47;101563.16;4991214;28;48689;-68
2023/01/26 10:55:31;;;;;;;;;53.25;46.00;;;;;4.15;80.37;101570.13;4991141;27;45349;-69
2023/01/26 10:57:56;;;;;;;;;57.75;47.00;;;;;3.97;80.31;101558.78;4991904;28;45432;-68
2023/01/26 11:00:28;;;;;;;;;53.75;45.00;;;;;4.07;80.29;101563.16;4992511;28;45389;-69
2023/01/26 11:03:12;;;;;;;;;54.75;45.50;;;;;4.06;80.56;101566.63;4992230;28;47305;-68
2023/01/26 11:05:38;;;;;;;;;51.50;41.00;;;;;4.03;80.78;101561.41;4992724;28;45379;-66
2023/01/26 11:08:34;;;;;;;;;56.50;46.50;;;;;4.01;80.82;101554.44;4991265;28;45572;-67
2023/01/26 11:10:59;;;;;;;;;55.50;45.25;;;;;4.03;80.25;101570.94;4992307;28;45518;-65
2023/01/26 11:13:25;;;;;;;;;52.50;41.00;;;;;3.92;80.79;101550.09;4992066;28;45595;-66
2023/01/26 11:16:23;;;;;;;;;54.75;45.00;;;;;3.99;81.23;101550.97;4992099;28;45310;-66
2023/01/26 11:18:56;;;;;;;;;52.25;43.00;;;;;4.04;81.00;101552.75;4990984;28;45432;-68
2023/01/26 11:21:30;;;;;;;;;61.00;50.25;;;;;4.08;81.36;101548.41;5007712;28;45430;-68
2023/01/26 11:24:24;;;;;;;;;51.00;41.75;;;;;4.18;81.06;101551.91;4992286;28;46947;-67
2023/01/26 11:27:05;;;;;;;;;60.00;49.25;;;;;4.19;80.75;101546.69;4992051;28;45676;-68
2023/01/26 11:29:59;;;;;;;;;56.75;47.50;;;;;4.22;80.88;101540.63;4991508;28;45239;-66
2023/01/26 11:32:42;;;;;;;;;54.75;46.50;;;;;4.18;81.05;101539.72;4992690;28;45313;-65
2023/01/26 11:35:20;;;;;;;;;67.50;54.50;;;;;4.26;82.17;101547.56;4992362;28;45383;-65
2023/01/26 11:37:51;;;;;;;;;63.50;51.25;;;;;4.36;81.40;101548.47;4993002;28;45460;-69
2023/01/26 11:40:33;;;;;;;;;55.25;45.75;;;;;4.46;81.24;101544.13;4992132;28;45350;-69
2023/01/26 11:43:34;;;;;;;;;55.00;45.75;;;;;4.46;80.13;101534.59;4993447;28;45446;-67
2023/01/26 11:46:17;;;;;;;;;53.75;46.00;;;;;4.44;80.71;101536.31;4990439;28;46968;-67
2023/01/26 11:48:45;;;;;;;;;63.00;50.25;;;;;4.47;80.78;101528.50;4991297;28;45423;-68
2023/01/26 11:51:38;;;;;;;;;60.25;49.75;;;;;4.52;80.70;101536.31;4993432;28;45342;-67
2023/01/26 11:54:19;;;;;;;;;59.00;49.25;;;;;4.57;80.51;101537.16;4993695;28;45332;-66
2023/01/26 11:56:56;;;;;;;;;83.33;71.33;;;;;4.63;80.39;101534.56;4992965;28;45710;-69
2023/01/26 11:59:29;;;;;;;;;64.25;52.00;;;;;4.67;80.62;101536.31;4993139;28;45413;-68
2023/01/26 12:02:20;;;;;;;;;56.00;47.00;;;;;4.67;81.19;101530.25;4992634;28;45481;-68
2023/01/26 12:04:46;;;;;;;;;69.25;54.25;;;;;4.76;80.68;101531.94;4992636;28;45548;-67
2023/01/26 12:07:17;;;;;;;;;53.50;43.50;;;;;4.74;80.19;101529.38;4992341;28;46924;-69